createdAt,value
2023-05-03T00:01:07.335Z,10.07
2023-05-03T00:03:33.895Z,9.07
2023-05-03T00:06:16.008Z,10.27
2023-05-03T00:08:43.222Z,11.88
2023-05-03T00:11:09.820Z,10.02
2023-05-03T00:13:36.317Z,12.85
2023-05-03T00:16:02.559Z,8.48
2023-05-03T00:18:30.328Z,8.95
2023-05-03T00:20:56.996Z,12.35
2023-05-03T00:23:23.414Z,10.57
2023-05-03T00:25:53.967Z,9.50
2023-05-03T00:28:20.496Z,9.20
2023-05-03T00:30:46.733Z,9.80
2023-05-03T00:33:13.080Z,8.07
2023-05-03T00:35:39.500Z,10.88
2023-05-03T00:38:05.713Z,9.57
2023-05-03T00:40:31.928Z,9.77
2023-05-03T00:42:58.133Z,10.32
2023-05-03T00:45:24.526Z,7.13
2023-05-03T00:47:50.963Z,10.13
2023-05-03T00:50:17.405Z,11.35
2023-05-03T00:52:44.122Z,9.40
2023-05-03T00:55:10.398Z,10.02
2023-05-03T00:57:36.654Z,11.30
2023-05-03T01:00:03.792Z,10.85
2023-05-03T01:02:30.612Z,10.02
2023-05-03T01:04:56.947Z,10.40
2023-05-03T01:07:23.150Z,11.70
2023-05-03T01:09:55.889Z,11.32
2023-05-03T01:12:42.004Z,15.05
2023-05-03T01:15:15.917Z,11.02
2023-05-03T01:17:48.898Z,9.23
2023-05-03T01:20:17.874Z,8.73
2023-05-03T01:22:50.319Z,11.13
2023-05-03T01:25:16.741Z,9.85
2023-05-03T01:27:43.193Z,9.70
2023-05-03T01:30:11.156Z,12.85
2023-05-03T01:33:03.317Z,11.27
2023-05-03T01:35:29.600Z,12.35
2023-05-03T01:37:57.270Z,11.23
2023-05-03T01:40:25.126Z,10.55
2023-05-03T01:42:52.173Z,10.60
2023-05-03T01:45:18.514Z,11.23
2023-05-03T01:47:44.857Z,12.10
2023-05-03T01:50:11.269Z,13.15
2023-05-03T01:52:37.681Z,9.63
2023-05-03T01:55:04.002Z,12.57
2023-05-03T01:57:30.270Z,11.52
2023-05-03T01:59:56.579Z,9.50
2023-05-03T02:02:22.909Z,11.23
2023-05-03T02:04:49.519Z,12.25
2023-05-03T02:07:15.775Z,14.68
2023-05-03T02:09:42.188Z,11.23
2023-05-03T02:12:09.804Z,11.32
2023-05-03T02:14:35.998Z,9.48
2023-05-03T02:17:03.123Z,11.07
2023-05-03T02:19:29.617Z,13.05
2023-05-03T02:21:56.568Z,11.55
2023-05-03T02:24:23.494Z,10.65
2023-05-03T02:26:49.720Z,15.15
2023-05-03T02:29:15.920Z,12.20
2023-05-03T02:31:42.127Z,11.65
2023-05-03T02:34:08.901Z,12.90
2023-05-03T02:36:35.370Z,12.00
2023-05-03T02:39:01.576Z,11.70
2023-05-03T02:41:28.585Z,13.48
2023-05-03T02:43:54.803Z,11.68
2023-05-03T02:46:21.103Z,13.25
2023-05-03T02:48:47.353Z,10.77
2023-05-03T02:51:13.873Z,16.05
2023-05-03T02:53:40.131Z,9.63
2023-05-03T02:56:06.538Z,11.45
2023-05-03T02:58:32.771Z,12.82
2023-05-03T03:00:58.970Z,12.68
2023-05-03T03:03:25.332Z,9.48
2023-05-03T03:05:51.600Z,15.20
2023-05-03T03:08:18.003Z,12.30
2023-05-03T03:10:44.238Z,12.00
2023-05-03T03:13:10.544Z,13.32
2023-05-03T03:15:36.756Z,11.23
2023-05-03T03:18:03.045Z,11.85
2023-05-03T03:20:29.283Z,12.20
2023-05-03T03:22:55.615Z,14.98
2023-05-03T03:25:21.901Z,9.38
2023-05-03T03:27:48.115Z,9.57
2023-05-03T03:30:14.360Z,10.88
2023-05-03T03:32:41.067Z,11.88
2023-05-03T03:35:08.437Z,14.10
2023-05-03T03:37:34.733Z,13.98
2023-05-03T03:40:01.203Z,16.77
2023-05-03T03:42:27.539Z,13.68
2023-05-03T03:44:53.787Z,11.32
2023-05-03T03:47:20.166Z,15.20
2023-05-03T03:49:46.556Z,13.63
2023-05-03T03:52:12.869Z,12.85
2023-05-03T03:54:39.221Z,12.70
2023-05-03T03:57:05.407Z,13.23
2023-05-03T03:59:31.629Z,11.52
2023-05-03T04:01:57.930Z,13.23
2023-05-03T04:04:24.593Z,13.93
2023-05-03T04:06:50.933Z,11.93
2023-05-03T04:09:17.612Z,15.13
2023-05-03T04:11:44.352Z,15.45
2023-05-03T04:14:10.601Z,15.10
2023-05-03T04:16:36.959Z,15.40
2023-05-03T04:19:03.214Z,16.80
2023-05-03T04:21:29.473Z,11.52
2023-05-03T04:23:55.888Z,14.88
2023-05-03T04:26:31.396Z,15.05
2023-05-03T04:28:59.007Z,14.40
2023-05-03T04:31:25.364Z,15.05
2023-05-03T04:33:51.814Z,13.85
2023-05-03T04:36:18.765Z,13.48
2023-05-03T04:38:44.998Z,13.65
2023-05-03T04:41:11.899Z,15.27
2023-05-03T04:43:39.658Z,17.33
2023-05-03T04:46:05.990Z,15.20
2023-05-03T04:48:32.216Z,12.95
2023-05-03T04:50:58.478Z,16.17
2023-05-03T04:53:24.705Z,14.75
2023-05-03T04:55:51.256Z,12.48
2023-05-03T04:58:17.455Z,14.20
2023-05-03T05:00:45.093Z,15.93
2023-05-03T05:03:11.641Z,11.10
2023-05-03T05:05:38.069Z,14.93
2023-05-03T05:08:04.365Z,15.43
2023-05-03T05:10:30.690Z,12.25
2023-05-03T05:12:56.930Z,12.15
2023-05-03T05:15:23.376Z,15.30
2023-05-03T05:17:49.891Z,17.52
2023-05-03T05:20:17.070Z,12.18
2023-05-03T05:22:44.600Z,12.30
2023-05-03T05:25:10.851Z,12.55
2023-05-03T05:27:37.273Z,11.13
2023-05-03T05:30:04.632Z,12.13
2023-05-03T05:32:31.205Z,10.63
2023-05-03T05:34:57.612Z,13.75
2023-05-03T05:37:24.346Z,11.38
2023-05-03T05:39:50.849Z,11.48
2023-05-03T05:42:17.115Z,13.93
2023-05-03T05:44:43.515Z,12.85
2023-05-03T05:47:09.782Z,13.68
2023-05-03T05:49:36.188Z,11.93
2023-05-03T05:52:02.559Z,12.57
2023-05-03T05:54:30.364Z,11.77
2023-05-03T05:56:57.466Z,10.55
2023-05-03T05:59:24.438Z,11.35
2023-05-03T06:01:50.964Z,13.23
2023-05-03T06:04:17.211Z,11.32
2023-05-03T06:06:43.603Z,11.25
2023-05-03T06:09:23.413Z,10.38
2023-05-03T06:11:50.706Z,13.77
2023-05-03T06:14:17.269Z,10.95
2023-05-03T06:16:43.641Z,9.98
2023-05-03T06:19:09.882Z,9.35
2023-05-03T06:21:36.154Z,14.07
2023-05-03T06:24:02.634Z,10.30
2023-05-03T06:26:28.837Z,11.15
2023-05-03T06:28:55.050Z,14.75
2023-05-03T06:31:21.327Z,13.20
2023-05-03T06:33:47.616Z,10.40
2023-05-03T06:36:13.956Z,10.85
2023-05-03T06:38:40.777Z,11.15
2023-05-03T06:41:07.000Z,9.43
2023-05-03T06:43:33.286Z,10.35
2023-05-03T06:45:59.562Z,9.57
2023-05-03T06:48:26.272Z,13.05
2023-05-03T06:50:52.596Z,9.95
2023-05-03T06:53:18.807Z,10.55
2023-05-03T06:55:46.075Z,10.80
2023-05-03T06:58:12.314Z,8.10
2023-05-03T07:00:41.341Z,10.07
2023-05-03T07:03:07.834Z,10.10
2023-05-03T07:05:34.418Z,7.95
2023-05-03T07:08:00.749Z,9.35
2023-05-03T07:10:31.101Z,9.77
2023-05-03T07:12:57.832Z,9.73
2023-05-03T07:15:24.330Z,8.65
2023-05-03T07:17:50.595Z,7.63
2023-05-03T07:20:16.850Z,7.68
2023-05-03T07:22:43.128Z,8.00
2023-05-03T07:25:09.530Z,7.53
2023-05-03T07:27:36.912Z,6.10
2023-05-03T07:30:04.798Z,5.00
2023-05-03T07:32:32.110Z,6.75
2023-05-03T07:34:58.400Z,7.80
2023-05-03T07:37:25.509Z,7.65
2023-05-03T07:39:52.468Z,5.97
2023-05-03T07:42:18.684Z,5.72
2023-05-03T07:44:44.907Z,6.50
2023-05-03T07:47:11.270Z,6.88
2023-05-03T07:49:37.807Z,6.60
2023-05-03T07:52:04.018Z,8.18
2023-05-03T07:54:30.335Z,6.80
2023-05-03T07:56:56.546Z,8.38
2023-05-03T07:59:22.803Z,6.88
2023-05-03T08:01:49.102Z,4.90
2023-05-03T08:04:15.533Z,7.57
2023-05-03T08:06:42.997Z,6.07
2023-05-03T08:09:09.350Z,6.18
2023-05-03T08:11:35.682Z,5.72
2023-05-03T08:14:01.940Z,6.30
2023-05-03T08:16:28.232Z,6.20
2023-05-03T08:18:54.540Z,5.15
2023-05-03T08:21:21.919Z,8.60
2023-05-03T08:23:48.521Z,6.63
2023-05-03T08:26:15.492Z,4.15
2023-05-03T08:28:41.964Z,7.30
2023-05-03T08:31:08.712Z,6.10
2023-05-03T08:33:35.283Z,4.60
2023-05-03T08:36:01.705Z,6.32
2023-05-03T08:38:28.702Z,7.05
2023-05-03T08:40:57.936Z,6.20
2023-05-03T08:43:27.317Z,5.30
2023-05-03T08:45:53.609Z,6.20
2023-05-03T08:48:20.028Z,5.40
2023-05-03T08:50:46.470Z,5.72
2023-05-03T08:53:12.755Z,4.80
2023-05-03T08:55:39.714Z,6.00
2023-05-03T08:58:13.190Z,8.35
2023-05-03T09:00:41.568Z,7.68
2023-05-03T09:03:08.090Z,6.38
2023-05-03T09:05:35.348Z,5.32
2023-05-03T09:08:07.265Z,5.00
2023-05-03T09:10:36.453Z,6.03
2023-05-03T09:13:03.223Z,5.57
2023-05-03T09:15:30.866Z,7.22
2023-05-03T09:18:06.708Z,4.32
2023-05-03T09:20:36.769Z,8.27
2023-05-03T09:23:03.229Z,5.78
2023-05-03T09:25:42.272Z,4.53
2023-05-03T09:28:09.057Z,5.35
2023-05-03T09:30:35.417Z,6.53
2023-05-03T09:33:01.670Z,6.82
2023-05-03T09:35:28.845Z,6.07
2023-05-03T09:37:55.236Z,5.38
2023-05-03T09:40:21.508Z,6.88
2023-05-03T09:43:06.987Z,7.45
2023-05-03T09:45:34.338Z,6.78
2023-05-03T09:48:02.110Z,7.80
2023-05-03T09:50:28.974Z,6.72
2023-05-03T09:52:56.123Z,6.82
2023-05-03T09:55:22.387Z,7.22
2023-05-03T09:57:48.890Z,6.50
2023-05-03T10:00:16.760Z,6.72
2023-05-03T10:02:44.105Z,7.80
2023-05-03T10:05:11.432Z,5.75
2023-05-03T10:07:40.187Z,7.50
2023-05-03T10:10:07.154Z,9.13
2023-05-03T10:12:35.981Z,6.05
2023-05-03T10:15:06.204Z,6.90
2023-05-03T10:17:46.297Z,7.88
2023-05-03T10:20:32.137Z,7.80
2023-05-03T10:23:04.558Z,6.07
2023-05-03T10:25:35.425Z,10.10
2023-05-03T10:28:08.731Z,4.68
2023-05-03T10:30:38.693Z,7.32
2023-05-03T10:33:11.090Z,7.68
2023-05-03T10:35:39.198Z,4.97
2023-05-03T10:38:14.848Z,6.63
2023-05-03T10:40:42.180Z,8.25
2023-05-03T10:43:28.384Z,4.43
2023-05-03T10:46:01.115Z,6.45
2023-05-03T10:48:28.503Z,4.20
2023-05-03T10:50:55.634Z,5.07
2023-05-03T10:53:31.196Z,8.23
2023-05-03T10:56:01.264Z,6.10
2023-05-03T10:58:27.496Z,4.43
2023-05-03T11:00:53.711Z,4.38
2023-05-03T11:03:19.935Z,6.80
2023-05-03T11:05:47.832Z,5.25
2023-05-03T11:08:25.843Z,6.28
2023-05-03T11:10:59.715Z,4.78
2023-05-03T11:13:26.354Z,6.00
2023-05-03T11:15:56.282Z,4.40
2023-05-03T11:18:22.972Z,4.55
2023-05-03T11:20:49.501Z,5.47
2023-05-03T11:23:15.706Z,4.03
2023-05-03T11:25:42.154Z,5.88
2023-05-03T11:28:08.482Z,6.97
2023-05-03T11:30:37.729Z,5.05
2023-05-03T11:33:04.141Z,5.07
2023-05-03T11:35:30.607Z,5.53
2023-05-03T11:37:56.830Z,4.05
2023-05-03T11:40:23.167Z,4.78
2023-05-03T11:42:53.102Z,5.00
2023-05-03T11:45:23.936Z,4.70
2023-05-03T11:47:51.011Z,5.32
2023-05-03T11:50:17.742Z,4.15
2023-05-03T11:52:44.637Z,4.55
2023-05-03T11:55:11.935Z,5.90
2023-05-03T11:57:38.386Z,4.30
2023-05-03T12:00:17.305Z,4.38
2023-05-03T12:02:45.078Z,4.88
2023-05-03T12:05:12.420Z,6.75
2023-05-03T12:07:39.772Z,3.65
2023-05-03T12:10:22.733Z,4.75
2023-05-03T12:12:57.006Z,3.65
2023-05-03T12:15:27.572Z,4.22
2023-05-03T12:17:55.976Z,5.75
2023-05-03T12:22:56.730Z,5.88
2023-05-03T12:25:26.314Z,5.93
2023-05-03T12:28:15.280Z,6.68
2023-05-03T12:30:40.769Z,5.55
2023-05-03T12:33:09.569Z,6.85
2023-05-03T12:35:39.990Z,4.70
2023-05-03T12:38:09.703Z,3.97
2023-05-03T12:40:36.658Z,4.88
2023-05-03T12:43:03.256Z,5.45
2023-05-03T12:45:34.266Z,4.85
2023-05-03T12:48:01.445Z,4.43
2023-05-03T12:50:31.045Z,6.15
2023-05-03T12:55:25.644Z,5.38
2023-05-03T12:58:13.678Z,4.35
2023-05-03T13:00:46.132Z,4.30
2023-05-03T13:03:32.671Z,3.75
2023-05-03T13:06:00.864Z,5.85
2023-05-03T13:08:34.041Z,3.80
2023-05-03T13:11:01.363Z,5.28
2023-05-03T13:13:28.660Z,3.60
2023-05-03T13:15:55.215Z,3.65
2023-05-03T13:18:22.770Z,5.45
2023-05-03T13:20:49.201Z,4.95
2023-05-03T13:23:15.471Z,3.42
2023-05-03T13:25:43.401Z,3.10
2023-05-03T13:28:10.311Z,3.30
2023-05-03T13:30:36.508Z,3.30
2023-05-03T13:33:02.822Z,2.63
2023-05-03T13:35:29.140Z,3.95
2023-05-03T13:37:55.341Z,3.42
2023-05-03T13:40:21.643Z,6.05
2023-05-03T13:42:48.560Z,4.53
2023-05-03T13:45:15.254Z,3.85
2023-05-03T13:48:04.890Z,3.78
2023-05-03T13:50:30.811Z,4.70
2023-05-03T13:52:57.041Z,2.92
2023-05-03T13:55:24.188Z,3.33
2023-05-03T13:57:50.372Z,3.53
2023-05-03T14:00:17.340Z,4.82
2023-05-03T14:02:43.580Z,4.57
2023-05-03T14:05:10.759Z,3.40
2023-05-03T14:07:37.978Z,5.20
2023-05-03T14:10:06.145Z,2.78
2023-05-03T14:12:36.455Z,5.50
2023-05-03T14:15:06.044Z,4.72
2023-05-03T14:17:32.560Z,4.38
2023-05-03T14:19:59.582Z,5.05
2023-05-03T14:22:26.166Z,4.50
2023-05-03T14:24:52.368Z,5.97
2023-05-03T14:27:21.679Z,6.05
2023-05-03T14:29:48.259Z,5.72
2023-05-03T14:32:14.489Z,5.03
2023-05-03T14:34:40.774Z,5.47
2023-05-03T14:37:07.032Z,3.88
2023-05-03T14:39:33.320Z,3.42
2023-05-03T14:41:59.586Z,5.60
2023-05-03T14:44:26.609Z,4.07
2023-05-03T14:46:53.198Z,3.13
2023-05-03T14:49:19.496Z,4.22
2023-05-03T14:51:45.740Z,3.47
2023-05-03T14:54:12.390Z,6.10
2023-05-03T14:56:38.621Z,9.40
2023-05-03T14:59:05.165Z,5.05
2023-05-03T15:01:31.598Z,2.78
2023-05-03T15:03:57.916Z,5.65
2023-05-03T15:06:25.375Z,4.07
2023-05-03T15:08:52.249Z,3.45
2023-05-03T15:11:18.453Z,3.58
2023-05-03T15:13:44.762Z,3.95
2023-05-03T15:16:11.306Z,4.32
2023-05-03T15:18:37.579Z,4.40
2023-05-03T15:21:04.318Z,3.58
2023-05-03T15:23:30.976Z,2.90
2023-05-03T15:25:57.972Z,4.35
2023-05-03T15:28:24.292Z,2.85
2023-05-03T15:30:50.794Z,2.75
2023-05-03T15:33:17.131Z,4.50
2023-05-03T15:35:43.448Z,4.15
2023-05-03T15:38:09.696Z,3.65
2023-05-03T15:40:36.279Z,3.20
2023-05-03T15:43:02.535Z,3.42
2023-05-03T15:45:29.472Z,4.63
2023-05-03T15:47:58.514Z,3.40
2023-05-03T15:50:25.064Z,2.55
2023-05-03T15:52:51.271Z,4.32
2023-05-03T15:55:18.199Z,2.25
2023-05-03T15:57:45.438Z,3.90
2023-05-03T16:00:12.796Z,2.80
2023-05-03T16:02:39.751Z,3.05
2023-05-03T16:05:06.219Z,3.95
2023-05-03T16:07:32.545Z,3.47
2023-05-03T16:09:58.928Z,4.35
2023-05-03T16:12:25.201Z,4.05
2023-05-03T16:14:51.530Z,4.22
2023-05-03T16:17:17.793Z,4.10
2023-05-03T16:19:44.130Z,4.45
2023-05-03T16:22:10.364Z,3.75
2023-05-03T16:24:37.391Z,5.97
2023-05-03T16:27:03.733Z,3.70
2023-05-03T16:29:30.002Z,3.63
2023-05-03T16:31:56.355Z,3.08
2023-05-03T16:34:22.685Z,3.20
2023-05-03T16:36:48.879Z,3.40
2023-05-03T16:39:15.145Z,2.53
2023-05-03T16:41:41.412Z,3.95
2023-05-03T16:44:08.677Z,3.13
2023-05-03T16:46:36.177Z,4.00
2023-05-03T16:49:02.945Z,4.05
2023-05-03T16:51:29.424Z,3.13
2023-05-03T16:53:55.947Z,3.65
2023-05-03T16:56:22.787Z,4.47
2023-05-03T16:58:49.860Z,3.95
2023-05-03T17:01:16.257Z,3.40
2023-05-03T17:03:43.193Z,3.47
2023-05-03T17:06:09.443Z,3.85
2023-05-03T17:08:35.728Z,6.22
2023-05-03T17:11:06.758Z,5.65
2023-05-03T17:13:32.978Z,4.82
2023-05-03T17:15:59.233Z,2.45
2023-05-03T17:18:25.717Z,2.42
2023-05-03T17:20:52.685Z,2.45
2023-05-03T17:23:20.576Z,9.93
2023-05-03T17:25:48.265Z,5.78
2023-05-03T17:28:14.521Z,5.30
2023-05-03T17:30:40.736Z,5.05
2023-05-03T17:33:07.662Z,6.70
2023-05-03T17:35:34.549Z,5.90
2023-05-03T17:38:00.846Z,7.65
2023-05-03T17:40:27.057Z,5.25
2023-05-03T17:42:53.346Z,5.13
2023-05-03T17:45:19.565Z,5.30
2023-05-03T17:47:46.890Z,6.32
2023-05-03T17:50:13.662Z,5.68
2023-05-03T17:52:39.985Z,5.55
2023-05-03T17:55:06.414Z,6.50
2023-05-03T17:57:32.621Z,6.00
2023-05-03T17:59:58.832Z,6.68
2023-05-03T18:02:25.077Z,7.63
2023-05-03T18:04:51.492Z,6.63
2023-05-03T18:07:17.735Z,7.00
2023-05-03T18:09:44.460Z,7.32
2023-05-03T18:12:10.767Z,4.47
2023-05-03T18:14:37.043Z,4.72
2023-05-03T18:17:03.240Z,5.05
2023-05-03T18:19:29.486Z,4.78
2023-05-03T18:21:55.690Z,4.15
2023-05-03T18:24:21.981Z,5.68
2023-05-03T18:26:49.462Z,4.10
2023-05-03T18:29:15.711Z,6.75
2023-05-03T18:31:42.010Z,6.00
2023-05-03T18:34:08.428Z,5.88
2023-05-03T18:36:34.654Z,4.15
2023-05-03T18:39:00.912Z,3.63
2023-05-03T18:41:27.174Z,4.78
2023-05-03T18:43:54.462Z,3.90
2023-05-03T18:46:20.704Z,5.15
2023-05-03T18:48:47.558Z,6.55
2023-05-03T18:51:14.186Z,3.15
2023-05-03T18:53:40.394Z,5.65
2023-05-03T18:56:06.621Z,3.63
2023-05-03T18:58:32.898Z,5.38
2023-05-03T19:01:00.194Z,5.15
2023-05-03T19:03:29.764Z,6.50
2023-05-03T19:06:03.900Z,5.70
2023-05-03T19:08:30.704Z,4.93
2023-05-03T19:10:56.981Z,3.65
2023-05-03T19:13:23.294Z,3.65
2023-05-03T19:15:49.699Z,8.10
2023-05-03T19:18:16.762Z,3.40
2023-05-03T19:20:43.205Z,8.20
2023-05-03T19:23:09.476Z,5.28
2023-05-03T19:25:35.904Z,7.10
2023-05-03T19:28:04.217Z,3.90
2023-05-03T19:30:30.514Z,4.82
2023-05-03T19:32:56.871Z,5.25
2023-05-03T19:35:23.080Z,3.72
2023-05-03T19:37:49.292Z,5.75
2023-05-03T19:40:15.492Z,4.32
2023-05-03T19:42:41.801Z,5.65
2023-05-03T19:45:08.250Z,5.40
2023-05-03T19:47:34.565Z,5.13
2023-05-03T19:50:00.851Z,4.65
2023-05-03T19:52:27.034Z,6.40
2023-05-03T19:54:54.473Z,14.27
2023-05-03T19:57:21.029Z,12.40
2023-05-03T19:59:47.923Z,11.57
2023-05-03T20:02:14.755Z,11.65
2023-05-03T20:04:41.408Z,9.60
2023-05-03T20:07:08.037Z,11.20
2023-05-03T20:09:34.262Z,10.95
2023-05-03T20:12:01.998Z,9.45
2023-05-03T20:14:28.311Z,12.15
2023-05-03T20:16:54.580Z,15.02
2023-05-03T20:19:20.869Z,12.73
2023-05-03T20:21:47.278Z,11.60
2023-05-03T20:24:14.623Z,10.57
2023-05-03T20:26:41.166Z,8.40
2023-05-03T20:29:07.410Z,8.77
2023-05-03T20:31:33.746Z,7.68
2023-05-03T20:34:00.350Z,6.40
2023-05-03T20:36:26.603Z,5.28
2023-05-03T20:38:54.602Z,6.50
2023-05-03T20:41:20.828Z,5.03
2023-05-03T20:43:47.084Z,4.60
2023-05-03T20:46:13.376Z,7.13
2023-05-03T20:48:39.729Z,4.32
2023-05-03T20:51:08.847Z,5.10
2023-05-03T20:53:35.158Z,5.30
2023-05-03T20:56:05.996Z,5.55
2023-05-03T20:58:32.572Z,4.93
2023-05-03T21:01:00.185Z,5.18
2023-05-03T21:03:26.524Z,4.88
2023-05-03T21:05:53.313Z,7.30
2023-05-03T21:08:19.602Z,5.65
2023-05-03T21:10:45.847Z,6.13
2023-05-03T21:13:12.174Z,8.57
2023-05-03T21:15:38.460Z,6.18
2023-05-03T21:18:06.461Z,5.97
2023-05-03T21:20:33.480Z,5.63
2023-05-03T21:22:59.780Z,5.72
2023-05-03T21:25:26.202Z,5.97
2023-05-03T21:27:53.150Z,6.15
2023-05-03T21:30:20.499Z,4.95
2023-05-03T21:32:50.087Z,5.10
2023-05-03T21:35:16.803Z,6.45
2023-05-03T21:37:43.491Z,5.72
2023-05-03T21:40:10.134Z,5.72
2023-05-03T21:42:36.699Z,5.88
2023-05-03T21:45:02.990Z,5.63
2023-05-03T21:47:29.534Z,5.40
2023-05-03T21:49:55.855Z,6.20
2023-05-03T21:52:22.422Z,4.78
2023-05-03T21:54:48.713Z,7.95
2023-05-03T21:57:14.918Z,6.18
2023-05-03T21:59:41.974Z,8.15
2023-05-03T22:02:08.476Z,6.70
2023-05-03T22:04:34.884Z,6.63
2023-05-03T22:07:01.200Z,6.93
2023-05-03T22:09:27.395Z,5.63
2023-05-03T22:11:53.583Z,6.03
2023-05-03T22:14:19.811Z,5.70
2023-05-03T22:16:46.090Z,5.15
2023-05-03T22:19:12.449Z,4.93
2023-05-03T22:21:38.707Z,4.35
2023-05-03T22:24:05.055Z,5.95
2023-05-03T22:26:31.413Z,7.35
2023-05-03T22:28:57.638Z,8.23
2023-05-03T22:31:24.721Z,8.38
2023-05-03T22:33:51.184Z,7.03
2023-05-03T22:36:17.389Z,6.60
2023-05-03T22:38:43.781Z,7.88
2023-05-03T22:41:10.197Z,11.57
2023-05-03T22:43:36.504Z,7.97
2023-05-03T22:46:02.966Z,8.23
2023-05-03T22:48:31.997Z,8.90
2023-05-03T22:50:58.396Z,6.60
2023-05-03T22:53:24.888Z,6.72
2023-05-03T22:55:55.207Z,6.47
2023-05-03T22:58:21.423Z,7.60
2023-05-03T23:00:47.647Z,6.97
2023-05-03T23:03:14.026Z,7.10
2023-05-03T23:05:40.676Z,6.43
2023-05-03T23:08:06.939Z,4.95
2023-05-03T23:10:33.736Z,5.38
2023-05-03T23:13:00.131Z,8.52
2023-05-03T23:15:27.964Z,7.22
2023-05-03T23:17:54.234Z,7.25
2023-05-03T23:20:20.891Z,6.82
2023-05-03T23:22:47.316Z,7.80
2023-05-03T23:25:13.667Z,7.38
2023-05-03T23:27:39.961Z,8.70
2023-05-03T23:30:07.177Z,5.78
2023-05-03T23:32:33.965Z,6.38
2023-05-03T23:35:00.530Z,5.18
2023-05-03T23:37:27.019Z,7.95
2023-05-03T23:39:53.572Z,4.43
2023-05-03T23:42:20.174Z,5.63
2023-05-03T23:44:54.428Z,5.90
2023-05-03T23:47:21.789Z,6.70
2023-05-03T23:49:47.978Z,5.88
2023-05-03T23:52:16.690Z,5.13
2023-05-03T23:54:42.867Z,10.23
2023-05-03T23:57:09.063Z,6.57
2023-05-03T23:59:35.595Z,7.68
